Time;durP1;ratioP1;P1;durP2;ratioP2;P2;SDS_P1;SDS_P2;PMS_P1;PMS_P2;Temp;Humidity;BMP_temperature;BMP_pressure;BME280_temperature;BME280_humidity;BME280_pressure;Samples;Min_cycle;Max_cycle;Signal;HPM_P1;HPM_P2
2023/04/23 00:00:45;;;;;;;190.88;67.93;;;;;;;8.20;100.00;100664.09;5065605;28;20229;-44
2023/04/23 00:03:13;;;;;;;203.57;68.22;;;;;;;8.20;100.00;100661.41;5070988;28;20040;-44
2023/04/23 00:05:38;;;;;;;;;;;;;;;8.21;100.00;100660.38;5065983;28;20031;-42
2023/04/23 00:08:05;;;;;;;208.43;68.07;;;;;;;8.19;100.00;100655.22;5054795;28;20325;-41
2023/04/23 00:10:31;;;;;;;198.85;71.25;;;;;;;8.19;100.00;100657.91;5055004;28;20234;-41
2023/04/23 00:12:56;;;;;;;207.43;71.85;;;;;;;8.19;100.00;100649.00;5049778;28;20035;-40
2023/04/23 00:15:22;;;;;;;209.70;70.50;;;;;;;8.23;100.00;100655.69;5049677;28;20037;-43
2023/04/23 00:17:48;;;;;;;219.90;73.35;;;;;;;8.21;100.00;100657.69;5050429;28;20028;-41
2023/04/23 00:20:15;;;;;;;209.18;71.85;;;;;;;8.27;100.00;100649.00;5050890;28;21643;-41
2023/04/23 00:22:41;;;;;;;213.80;73.47;;;;;;;8.32;100.00;100654.66;5055978;28;20052;-42
2023/04/23 00:25:09;;;;;;;217.60;73.88;;;;;;;8.33;100.00;100642.94;5050782;28;20025;-44
2023/04/23 00:27:34;;;;;;;;;;;;;;;8.40;100.00;100646.66;5051197;28;20116;-44
2023/04/23 00:30:00;;;;;;;201.32;70.05;;;;;;;8.42;100.00;100644.59;5067629;28;20025;-45
2023/04/23 00:32:25;;;;;;;222.43;78.13;;;;;;;8.43;100.00;100635.56;5069275;28;20458;-43
2023/04/23 00:34:51;;;;;;;215.50;70.25;;;;;;;8.42;100.00;100631.19;5063735;28;20028;-44
2023/04/23 00:37:16;;;;;;;214.50;73.57;;;;;;;8.40;100.00;100627.88;5052404;28;20025;-44
2023/04/23 00:39:42;;;;;;;222.27;74.30;;;;;;;8.38;100.00;100629.84;5050805;28;20021;-39
2023/04/23 00:42:11;;;;;;;217.70;74.45;;;;;;;8.36;100.00;100630.00;5049008;28;20079;-39
2023/04/23 00:44:37;;;;;;;211.13;73.75;;;;;;;8.34;100.00;100623.16;5057422;28;20505;-44
2023/04/23 00:47:04;;;;;;;219.73;76.05;;;;;;;8.32;100.00;100617.13;5070192;28;20373;-42
2023/04/23 00:49:29;;;;;;;219.15;76.18;;;;;;;8.32;100.00;100615.28;5045753;28;20498;-42
2023/04/23 00:51:55;;;;;;;216.05;75.93;;;;;;;8.32;100.00;100617.13;5052783;28;20056;-40
2023/04/23 00:54:21;;;;;;;219.00;75.80;;;;;;;8.39;100.00;100618.13;5052578;28;20021;-39
2023/04/23 00:56:47;;;;;;;228.13;78.35;;;;;;;8.38;100.00;100615.63;5050561;28;20128;-41
2023/04/23 00:59:13;;;;;;;218.70;75.65;;;;;;;8.45;100.00;100621.97;5063175;28;20032;-42
2023/04/23 01:01:39;;;;;;;216.63;75.80;;;;;;;8.45;100.00;100619.28;5059964;28;20032;-41
2023/04/23 01:04:05;;;;;;;223.85;75.35;;;;;;;8.49;100.00;100615.25;5032822;28;20100;-43
2023/04/23 01:06:30;;;;;;;226.38;77.78;;;;;;;8.52;100.00;100617.59;5048060;28;20054;-42
2023/04/23 01:08:56;;;;;;;225.82;77.65;;;;;;;8.47;100.00;100618.09;5058874;28;20025;-42
2023/04/23 01:11:21;;;;;;;229.52;76.68;;;;;;;8.45;100.00;100617.47;5051011;28;20029;-40
2023/04/23 01:13:47;;;;;;;221.57;74.78;;;;;;;8.46;100.00;100611.06;5052415;28;20025;-43
2023/04/23 01:16:12;;;;;;;228.23;76.15;;;;;;;8.48;100.00;100611.75;5045151;28;20079;-45
2023/04/23 01:18:39;;;;;;;228.18;79.13;;;;;;;8.46;100.00;100604.88;5056202;28;20420;-46
2023/04/23 01:21:06;;;;;;;236.95;77.93;;;;;;;8.55;100.00;100601.97;5047485;28;20024;-40
2023/04/23 01:23:31;;;;;;;208.20;71.60;;;;;;;8.51;100.00;100605.19;5057460;28;20032;-42
2023/04/23 01:25:57;;;;;;;204.70;74.80;;;;;;;8.55;100.00;100601.97;5050113;28;20440;-44
2023/04/23 01:28:23;;;;;;;209.70;70.15;;;;;;;8.53;100.00;100606.69;5054460;28;20329;-43
2023/04/23 01:30:48;;;;;;;213.73;73.70;;;;;;;8.51;100.00;100597.16;5062356;28;20056;-43
2023/04/23 01:33:15;;;;;;;210.43;74.03;;;;;;;8.50;100.00;100606.19;5052865;28;20086;-41
2023/04/23 01:35:40;;;;;;;202.95;69.93;;;;;;;8.49;100.00;100591.94;5060779;28;20467;-41
2023/04/23 01:38:08;;;;;;;210.73;72.25;;;;;;;8.53;100.00;100593.28;5063891;28;20029;-43
2023/04/23 01:40:33;;;;;;;213.40;71.53;;;;;;;8.54;100.00;100594.94;5067884;28;20119;-41
2023/04/23 01:42:59;;;;;;;211.20;73.70;;;;;;;8.60;100.00;100597.94;5065544;28;20136;-41
2023/04/23 01:45:24;;;;;;;197.32;71.85;;;;;;;8.61;100.00;100594.22;5061701;28;20029;-41
2023/04/23 01:47:50;;;;;;;203.52;71.95;;;;;;;8.56;100.00;100590.25;5063930;28;20073;-44
2023/04/23 01:50:15;;;;;;;202.43;70.25;;;;;;;8.67;100.00;100601.59;5063721;28;20119;-44
2023/04/23 01:52:43;;;;;;;200.27;69.65;;;;;;;8.67;100.00;100596.25;5053502;28;20056;-42
2023/04/23 01:55:08;;;;;;;201.48;68.65;;;;;;;8.65;100.00;100592.88;5058999;28;20509;-42
2023/04/23 01:57:34;;;;;;;195.57;68.45;;;;;;;8.69;100.00;100594.19;5069130;28;20111;-42
2023/04/23 02:00:07;;;;;;;195.30;68.32;;;;;;;8.65;100.00;100579.47;5055081;28;20049;-45
2023/04/23 02:02:33;;;;;;;182.40;66.80;;;;;;;8.70;100.00;100590.50;5033967;28;20040;-41
2023/04/23 02:05:03;;;;;;;177.88;63.95;;;;;;;8.79;100.00;100576.88;5067287;28;20043;-41
2023/04/23 02:07:28;;;;;;;180.00;64.47;;;;;;;8.78;100.00;100569.81;5056217;28;20070;-44
2023/04/23 02:09:53;;;;;;;173.77;62.95;;;;;;;8.88;100.00;100566.94;5055999;28;20129;-43
2023/04/23 02:12:19;;;;;;;178.00;62.95;;;;;;;8.89;100.00;100570.44;5051913;28;20029;-44
2023/04/23 02:14:44;;;;;;;171.27;62.78;;;;;;;8.89;100.00;100568.59;5069588;28;20024;-40
2023/04/23 02:17:11;;;;;;;176.73;63.90;;;;;;;8.86;100.00;100566.25;5060839;28;20027;-42
2023/04/23 02:19:36;;;;;;;162.57;60.47;;;;;;;8.95;100.00;100567.03;5042294;28;20379;-44
2023/04/23 02:22:02;;;;;;;170.13;61.67;;;;;;;8.87;100.00;100565.25;5066029;28;20052;-42
2023/04/23 02:24:27;;;;;;;174.10;62.47;;;;;;;8.84;100.00;100573.66;5069711;28;20117;-44
2023/04/23 02:26:52;;;;;;;157.90;57.63;;;;;;;8.83;100.00;100565.78;5065965;28;20032;-41
2023/04/23 02:29:18;;;;;;;172.32;61.20;;;;;;;8.79;100.00;100566.16;5065182;28;20052;-40
2023/04/23 02:31:43;;;;;;;168.52;58.30;;;;;;;8.77;100.00;100567.34;5053159;28;20025;-41
2023/04/23 02:34:09;;;;;;;158.05;58.30;;;;;;;8.75;100.00;100566.69;5050373;28;20036;-41
2023/04/23 02:36:35;;;;;;;153.05;57.35;;;;;;;8.78;100.00;100577.06;5052329;28;20435;-43
2023/04/23 02:39:00;;;;;;;161.52;58.65;;;;;;;8.78;100.00;100574.38;5053863;28;20093;-41
2023/04/23 02:41:26;;;;;;;153.38;58.28;;;;;;;8.77;100.00;100572.72;5069535;28;20033;-43
2023/04/23 02:43:51;;;;;;;145.75;56.70;;;;;;;8.81;100.00;100575.84;5067962;28;20029;-42
2023/04/23 02:46:16;;;;;;;138.27;53.45;;;;;;;8.82;100.00;100580.19;5071098;28;20092;-40
2023/04/23 02:48:43;;;;;;;151.40;57.60;;;;;;;8.82;100.00;100566.78;5053533;28;20047;-42
2023/04/23 02:51:11;;;;;;;134.30;53.53;;;;;;;8.85;100.00;100561.91;5070322;28;20501;-44
2023/04/23 02:53:36;;;;;;;141.63;52.95;;;;;;;8.81;100.00;100563.28;5065366;28;20373;-41
2023/04/23 02:56:02;;;;;;;142.20;54.55;;;;;;;8.79;100.00;100551.88;5052448;28;20033;-41
2023/04/23 02:58:28;;;;;;;136.18;53.00;;;;;;;8.77;100.00;100556.59;5065671;28;20051;-41
2023/04/23 03:00:53;;;;;;;147.13;54.97;;;;;;;8.76;100.00;100560.28;5062966;28;20386;-41
2023/04/23 03:03:19;;;;;;;139.38;53.83;;;;;;;8.74;100.00;100554.25;5068800;28;20032;-40
2023/04/23 03:05:45;;;;;;;145.98;55.83;;;;;;;8.72;100.00;100561.66;5057883;28;20029;-42
2023/04/23 03:08:10;;;;;;;145.98;55.05;;;;;;;8.74;100.00;100555.13;5054054;28;20025;-39
2023/04/23 03:10:35;;;;;;;145.77;54.05;;;;;;;8.75;100.00;100558.63;5052063;28;20029;-43
2023/04/23 03:13:01;;;;;;;141.27;53.63;;;;;;;8.77;100.00;100557.44;5054179;28;20078;-41
2023/04/23 03:15:26;;;;;;;143.60;55.53;;;;;;;8.79;100.00;100549.19;5050269;28;20068;-42
2023/04/23 03:17:52;;;;;;;136.05;52.75;;;;;;;8.82;100.00;100559.59;5060459;28;20033;-41
2023/04/23 03:20:18;;;;;;;145.05;55.67;;;;;;;8.82;100.00;100543.50;5056016;28;20037;-41
2023/04/23 03:22:44;;;;;;;142.57;53.30;;;;;;;8.86;100.00;100543.97;5049903;28;20446;-39
2023/04/23 03:25:10;;;;;;;136.43;53.45;;;;;;;8.93;100.00;100550.28;5062493;28;20474;-41
2023/04/23 03:27:35;;;;;;;133.00;52.83;;;;;;;8.99;100.00;100549.56;5068389;28;20027;-40
2023/04/23 03:30:01;;;;;;;135.27;53.10;;;;;;;8.98;100.00;100548.75;5052552;28;20602;-40
2023/04/23 03:32:26;;;;;;;137.32;53.70;;;;;;;9.02;100.00;100563.47;5050226;28;20041;-40
2023/04/23 03:34:51;;;;;;;142.73;54.45;;;;;;;8.99;100.00;100550.41;5049940;28;20754;-40
2023/04/23 03:37:17;;;;;;;143.50;53.63;;;;;;;8.99;100.00;100539.66;5050517;28;20032;-40
2023/04/23 03:39:42;;;;;;;131.40;53.53;;;;;;;9.01;100.00;100543.00;5050354;28;20040;-46
2023/04/23 03:42:08;;;;;;;137.40;51.15;;;;;;;9.04;100.00;100541.81;5049763;28;20025;-41
2023/04/23 03:44:33;;;;;;;133.15;53.78;;;;;;;9.04;100.00;100541.81;5049544;28;20108;-42
2023/04/23 03:46:58;;;;;;;127.82;51.63;;;;;;;9.11;100.00;100542.78;5050800;28;20529;-42
2023/04/23 03:49:25;;;;;;;135.60;55.20;;;;;;;9.09;100.00;100549.34;5059943;28;20140;-42
2023/04/23 03:51:50;;;;;;;138.18;53.28;;;;;;;9.08;100.00;100547.66;5049065;28;20457;-42
2023/04/23 03:54:16;;;;;;;140.10;51.42;;;;;;;9.09;100.00;100552.03;5031110;28;20020;-45
2023/04/23 03:56:41;;;;;;;136.40;53.22;;;;;;;9.07;100.00;100546.00;5030882;28;20036;-43
2023/04/23 03:59:07;;;;;;;137.02;51.45;;;;;;;9.09;100.00;100543.97;5060681;28;20033;-40
2023/04/23 04:01:35;;;;;;;130.43;52.90;;;;;;;9.12;100.00;100543.63;5048905;28;20036;-44
2023/04/23 04:04:01;;;;;;;131.48;51.40;;;;;;;9.14;100.00;100547.78;5055639;28;20376;-45
2023/04/23 04:06:26;;;;;;;135.40;51.72;;;;;;;9.16;100.00;100544.91;5055694;28;20040;-42
2023/04/23 04:08:53;;;;;;;135.05;51.63;;;;;;;9.20;100.00;100546.22;5059244;28;20043;-40
2023/04/23 04:11:18;;;;;;;125.90;50.88;;;;;;;9.19;100.00;100550.78;5054159;28;20040;-42
2023/04/23 04:13:44;;;;;;;120.88;48.30;;;;;;;9.21;100.00;100543.34;5057854;28;20055;-42
2023/04/23 04:16:09;;;;;;;131.02;51.78;;;;;;;9.24;100.00;100539.47;5062344;28;20123;-46
2023/04/23 04:18:35;;;;;;;123.63;48.55;;;;;;;9.27;100.00;100535.59;5064489;28;20052;-45
2023/04/23 04:21:00;;;;;;;123.38;47.60;;;;;;;9.29;100.00;100536.25;5059732;28;20036;-44
2023/04/23 04:23:26;;;;;;;126.50;50.10;;;;;;;9.26;100.00;100539.28;5062947;28;20082;-45
2023/04/23 04:25:55;;;;;;;117.88;49.10;;;;;;;9.30;100.00;100535.25;5054366;28;20119;-40
2023/04/23 04:28:20;;;;;;;123.18;49.03;;;;;;;9.27;100.00;100539.13;5054391;28;20124;-42
2023/04/23 04:30:48;;;;;;;115.32;47.35;;;;;;;9.30;100.00;100530.72;5051683;28;20147;-43
2023/04/23 04:33:13;;;;;;;119.93;48.17;;;;;;;9.27;100.00;100530.22;5051007;28;20039;-43
2023/04/23 04:35:39;;;;;;;121.85;48.25;;;;;;;9.28;100.00;100542.66;5049296;28;20037;-40
2023/04/23 04:38:04;;;;;;;120.22;46.65;;;;;;;9.26;100.00;100550.03;5049804;28;20052;-40
2023/04/23 04:40:30;;;;;;;116.22;46.85;;;;;;;9.29;100.00;100539.75;5048585;28;20031;-43
2023/04/23 04:42:56;;;;;;;118.38;45.28;;;;;;;9.31;100.00;100535.06;5032590;28;20156;-40
2023/04/23 04:45:22;;;;;;;115.15;44.72;;;;;;;9.36;100.00;100535.34;5066473;28;20028;-43
2023/04/23 04:47:47;;;;;;;107.40;45.08;;;;;;;9.33;100.00;100534.88;5065547;28;20031;-42
2023/04/23 04:50:12;;;;;;;115.50;45.47;;;;;;;9.32;100.00;100534.06;5056912;28;20057;-39
2023/04/23 04:52:38;;;;;;;116.70;45.50;;;;;;;9.31;100.00;100540.41;5048139;28;20075;-44
2023/04/23 04:55:05;;;;;;;105.00;44.35;;;;;;;9.36;100.00;100532.66;5060408;28;20386;-45
2023/04/23 04:57:31;;;;;;;108.75;43.70;;;;;;;9.34;100.00;100534.69;5066662;28;20035;-42
2023/04/23 04:59:57;;;;;;;104.78;42.08;;;;;;;9.34;100.00;100541.91;5054870;28;20028;-42
2023/04/23 05:02:23;;;;;;;111.35;44.15;;;;;;;9.34;100.00;100542.75;5058911;28;20764;-43
2023/04/23 05:04:48;;;;;;;105.55;42.22;;;;;;;9.31;100.00;100548.47;5031243;28;20044;-43
2023/04/23 05:07:13;;;;;;;119.07;43.42;;;;;;;9.28;100.00;100543.47;5052544;28;20033;-40
2023/04/23 05:09:39;;;;;;;110.50;41.95;;;;;;;9.30;100.00;100540.63;5049262;28;20082;-43
2023/04/23 05:12:06;;;;;;;101.78;40.60;;;;;;;9.23;100.00;100535.94;5065463;28;20029;-40
2023/04/23 05:14:32;;;;;;;105.93;41.55;;;;;;;9.23;100.00;100535.94;5066900;28;20374;-41
2023/04/23 05:16:57;;;;;;;108.13;42.67;;;;;;;9.22;100.00;100547.72;5067225;28;20040;-42
2023/04/23 05:19:22;;;;;;;109.68;43.22;;;;;;;9.26;100.00;100540.13;5062213;28;20105;-44
2023/04/23 05:21:48;;;;;;;99.28;40.80;;;;;;;9.28;100.00;100526.53;5058516;28;20032;-42
2023/04/23 05:24:13;;;;;;;107.18;40.83;;;;;;;9.27;100.00;100527.53;5052912;28;20497;-40
2023/04/23 05:26:39;;;;;;;102.93;41.45;;;;;;;9.33;100.00;100526.81;5047980;28;20052;-41
2023/04/23 05:29:04;;;;;;;104.45;40.05;;;;;;;9.43;100.00;100527.41;5032006;28;20036;-42
2023/04/23 05:31:30;;;;;;;99.93;39.75;;;;;;;9.48;100.00;100529.53;5047823;28;20041;-40
2023/04/23 05:33:55;;;;;;;103.45;40.70;;;;;;;9.49;100.00;100534.72;5054407;28;20060;-41
2023/04/23 05:36:20;;;;;;;94.15;39.50;;;;;;;9.63;100.00;100533.06;5063199;28;20061;-42
2023/04/23 05:38:46;;;;;;;92.60;39.85;;;;;;;9.72;100.00;100523.94;5057822;28;20331;-42
2023/04/23 05:41:12;;;;;;;102.35;41.00;;;;;;;9.93;100.00;100517.81;5051699;28;20029;-43
2023/04/23 05:43:37;;;;;;;96.22;37.95;;;;;;;10.29;100.00;100525.97;5060828;28;20482;-41
2023/04/23 05:46:06;;;;;;;93.68;38.10;;;;;;;10.76;100.00;100516.56;5060861;28;20498;-42
2023/04/23 05:48:31;;;;;;;83.95;35.72;;;;;;;11.30;100.00;100506.31;5054929;28;20040;-41
2023/04/23 05:50:59;;;;;;;74.43;33.30;;;;;;;11.89;100.00;100486.19;5063268;28;20120;-43
2023/04/23 05:53:24;;;;;;;69.82;32.30;;;;;;;12.31;100.00;100482.44;5048165;28;20032;-44
2023/04/23 05:55:50;;;;;;;76.05;33.70;;;;;;;12.82;100.00;100473.88;5053135;28;20028;-42
2023/04/23 05:58:16;;;;;;;72.25;32.67;;;;;;;13.15;100.00;100470.34;5049474;28;20055;-45
2023/04/23 06:00:41;;;;;;;76.18;33.00;;;;;;;13.53;100.00;100469.72;5048024;28;20029;-40
2023/04/23 06:03:07;;;;;;;68.40;30.50;;;;;;;13.65;100.00;100468.03;5052772;28;20033;-43
2023/04/23 06:05:32;;;;;;;66.72;30.85;;;;;;;14.04;100.00;100458.13;5061278;28;20036;-43
2023/04/23 06:07:57;;;;;;;67.93;30.02;;;;;;;13.84;100.00;100467.13;5064609;28;20522;-41
2023/04/23 06:10:23;;;;;;;61.47;28.90;;;;;;;14.69;100.00;100455.31;5054424;28;20522;-43
2023/04/23 06:12:48;;;;;;;66.85;30.60;;;;;;;15.05;100.00;100456.53;5050946;28;20135;-42
2023/04/23 06:15:13;;;;;;;60.65;27.48;;;;;;;15.10;100.00;100453.97;5052263;28;20032;-43
2023/04/23 06:17:40;;;;;;;59.80;27.25;;;;;;;15.00;100.00;100449.06;5058605;28;20032;-42
2023/04/23 06:20:06;;;;;;;50.85;26.05;;;;;;;15.01;100.00;100439.03;5060066;28;20557;-40
2023/04/23 06:22:33;;;;;;;51.30;25.15;;;;;;;15.19;100.00;100435.56;5061094;28;20037;-40
2023/04/23 06:24:58;;;;;;;48.88;25.05;;;;;;;15.83;100.00;100442.44;5058601;28;20459;-42
2023/04/23 06:27:24;;;;;;;52.75;25.00;;;;;;;15.18;100.00;100439.31;5058798;28;20096;-41
2023/04/23 06:29:49;;;;;;;49.50;23.65;;;;;;;15.15;100.00;100438.72;5058852;28;20056;-41
2023/04/23 06:32:14;;;;;;;45.47;19.95;;;;;;;15.69;100.00;100441.78;5059609;28;20021;-40
2023/04/23 06:34:40;;;;;;;48.97;19.55;;;;;;;14.73;100.00;100434.06;5060188;28;20028;-41
2023/04/23 06:37:05;;;;;;;50.28;19.92;;;;;;;14.53;100.00;100436.88;5057835;28;20086;-42
2023/04/23 06:39:30;;;;;;;45.35;19.33;;;;;;;14.35;100.00;100429.47;5060031;28;20106;-41
2023/04/23 06:41:57;;;;;;;36.47;17.63;;;;;;;14.48;100.00;100430.22;5061715;28;20028;-43
2023/04/23 06:44:23;;;;;;;40.80;17.65;;;;;;;14.16;100.00;100437.47;5067554;28;20502;-42
2023/04/23 06:46:49;;;;;;;37.05;18.38;;;;;;;13.71;100.00;100432.00;5064578;28;20028;-42
2023/04/23 06:49:14;;;;;;;40.83;17.75;;;;;;;14.09;100.00;100431.28;5050243;28;20116;-41
2023/04/23 06:51:40;;;;;;;41.35;18.25;;;;;;;14.01;100.00;100423.41;5050321;28;20443;-40
2023/04/23 06:54:05;;;;;;;37.35;17.30;;;;;;;13.95;100.00;100435.88;5050912;28;20518;-45
2023/04/23 06:56:30;;;;;;;37.90;17.10;;;;;;;13.73;100.00;100438.06;5052471;28;20060;-42
2023/04/23 06:58:56;;;;;;;38.25;16.63;;;;;;;14.11;100.00;100423.75;5050659;28;20552;-40
2023/04/23 07:01:21;;;;;;;39.05;16.83;;;;;;;14.24;100.00;100434.53;5065687;28;20106;-42
2023/04/23 07:03:48;;;;;;;40.63;15.98;;;;;;;14.13;100.00;100428.94;5067335;28;20051;-41
2023/04/23 07:06:14;;;;;;;33.63;15.10;;;;;;;14.23;100.00;100427.44;5051071;28;20111;-42
2023/04/23 07:08:41;;;;;;;32.60;15.65;;;;;;;14.30;100.00;100424.72;5048934;28;20059;-40
2023/04/23 07:11:07;;;;;;;41.10;15.43;;;;;;;14.41;100.00;100429.44;5032527;28;20079;-41
2023/04/23 07:13:32;;;;;;;42.13;14.77;;;;;;;14.18;100.00;100427.25;5054818;28;20120;-42
2023/04/23 07:15:57;;;;;;;33.78;13.40;;;;;;;14.09;100.00;100436.69;5054026;28;20455;-39
2023/04/23 07:18:22;;;;;;;37.25;13.77;;;;;;;14.63;100.00;100426.41;5054273;28;20056;-43
2023/04/23 07:20:48;;;;;;;29.40;12.70;;;;;;;15.09;100.00;100420.63;5050862;28;20067;-43
2023/04/23 07:23:13;;;;;;;39.78;14.40;;;;;;;14.63;100.00;100419.09;5060153;28;20036;-40
2023/04/23 07:25:39;;;;;;;31.30;14.10;;;;;;;14.40;100.00;100419.66;5060743;28;20079;-40
2023/04/23 07:28:04;;;;;;;34.25;13.70;;;;;;;15.02;100.00;100424.44;5049090;28;20601;-40
2023/04/23 07:30:29;;;;;;;31.58;12.80;;;;;;;15.37;100.00;100406.59;5049137;28;20040;-43
2023/04/23 07:32:55;;;;;;;24.27;13.32;;;;;;;15.15;100.00;100419.72;5053576;28;20075;-40
2023/04/23 07:35:20;;;;;;;31.75;12.75;;;;;;;15.61;100.00;100405.94;5048803;28;20033;-42
2023/04/23 07:37:46;;;;;;;32.47;12.18;;;;;;;15.92;100.00;100404.97;5049852;28;20372;-43
2023/04/23 07:40:11;;;;;;;29.60;11.90;;;;;;;16.17;100.00;100421.16;5051349;28;20040;-43
2023/04/23 07:42:38;;;;;;;32.28;11.40;;;;;;;15.54;100.00;100404.13;5033248;28;20028;-46
2023/04/23 07:45:04;;;;;;;32.95;11.48;;;;;;;15.95;100.00;100407.22;5050343;28;20070;-44
2023/04/23 07:47:30;;;;;;;30.17;11.00;;;;;;;16.19;100.00;100402.72;5050401;28;20039;-44
2023/04/23 07:49:55;;;;;;;28.10;10.57;;;;;;;16.09;100.00;100405.16;5052168;28;20040;-44
2023/04/23 07:52:20;;;;;;;29.33;11.13;;;;;;;15.79;100.00;100409.50;5048168;28;20079;-43
2023/04/23 07:54:46;;;;;;;29.42;10.85;;;;;;;16.28;100.00;100401.38;5048245;28;20036;-43
2023/04/23 07:57:11;;;;;;;26.52;9.13;;;;;;;17.38;100.00;100404.63;5047448;28;20040;-41
2023/04/23 07:59:39;;;;;;;23.10;10.32;;;;;;;18.49;100.00;100399.84;5051437;28;20514;-41
2023/04/23 08:02:05;;;;;;;25.60;10.00;;;;;;;18.54;100.00;100397.22;5048128;28;20041;-42
2023/04/23 08:04:31;;;;;;;23.60;9.65;;;;;;;18.56;100.00;100395.09;5061951;28;20025;-40
2023/04/23 08:06:58;;;;;;;33.40;11.68;;;;;;;18.49;100.00;100378.06;5069516;28;20060;-43
2023/04/23 08:09:24;;;;;;;24.10;10.23;;;;;;;19.74;95.29;100384.06;5062510;28;20024;-40
2023/04/23 08:11:50;;;;;;;23.38;9.63;;;;;;;19.54;94.56;100386.53;5060752;28;20035;-43
2023/04/23 08:14:17;;;;;;;33.53;9.98;;;;;;;19.22;96.68;100391.78;5053430;28;20241;-44
2023/04/23 08:16:42;;;;;;;24.03;8.97;;;;;;;19.75;94.60;100387.66;5051340;28;20037;-43
2023/04/23 08:19:07;;;;;;;27.23;10.00;;;;;;;18.99;94.93;100390.91;5051520;28;20392;-43
2023/04/23 08:21:33;;;;;;;22.23;8.93;;;;;;;19.55;93.15;100381.88;5032728;28;20063;-43
2023/04/23 08:23:58;;;;;;;23.92;8.95;;;;;;;19.52;91.80;100384.03;5061393;28;20463;-44
2023/04/23 08:26:24;;;;;;;31.15;9.75;;;;;;;18.71;95.77;100396.41;5061651;28;20410;-39
2023/04/23 08:28:50;;;;;;;23.63;9.23;;;;;;;18.02;99.63;100382.91;5056969;28;20386;-44
2023/04/23 08:31:16;;;;;;;19.10;8.18;;;;;;;19.11;94.28;100388.06;5057134;28;20033;-44
2023/04/23 08:33:41;;;;;;;26.83;9.05;;;;;;;20.38;87.98;100391.63;5052187;28;20057;-42
2023/04/23 08:36:07;;;;;;;28.33;8.45;;;;;;;19.62;90.89;100391.53;5050325;28;20041;-44
2023/04/23 08:38:32;;;;;;;16.58;7.00;;;;;;;20.05;91.51;100405.47;5048639;28;20041;-39
2023/04/23 08:40:58;;;;;;;25.85;7.93;;;;;;;19.26;92.72;100398.41;5050707;28;20039;-44
2023/04/23 08:43:37;;;;;;;25.88;8.93;;;;;;;19.15;94.22;100410.25;5067459;28;20021;-44
2023/04/23 08:46:03;;;;;;;24.38;8.65;;;;;;;17.62;100.00;100397.28;5053147;28;20040;-42
2023/04/23 08:48:29;;;;;;;27.02;9.02;;;;;;;17.47;100.00;100393.16;5058029;28;20023;-43
2023/04/23 08:50:55;;;;;;;27.63;10.23;;;;;;;17.19;100.00;100414.81;5050929;28;20493;-41
2023/04/23 08:53:26;;;;;;;33.53;11.70;;;;;;;16.69;100.00;100396.97;5051986;28;20072;-43
2023/04/23 08:55:55;;;;;;;21.67;8.85;;;;;;;16.92;100.00;100412.53;5054437;28;20095;-42
2023/04/23 08:58:20;;;;;;;33.33;11.52;;;;;;;17.25;100.00;100401.09;5059519;28;20024;-42
2023/04/23 09:00:47;;;;;;;27.85;10.10;;;;;;;17.36;100.00;100391.28;5068999;28;20403;-40
2023/04/23 09:03:15;;;;;;;24.50;10.50;;;;;;;17.56;100.00;100390.88;5054015;28;20375;-42
2023/04/23 09:05:40;;;;;;;;;;;;;;;17.68;100.00;100391.69;5051181;28;20036;-42
2023/04/23 09:08:06;;;;;;;19.23;10.13;;;;;;;18.55;100.00;100387.97;5054006;28;20248;-41
2023/04/23 09:10:32;;;;;;;28.83;11.70;;;;;;;19.12;97.15;100395.19;5060009;28;20063;-43
2023/04/23 09:12:57;;;;;;;20.48;9.27;;;;;;;19.32;95.45;100391.94;5064720;28;20047;-41
2023/04/23 09:15:22;;;;;;;23.00;10.43;;;;;;;19.30;93.02;100388.66;5068196;28;20029;-43
2023/04/23 09:17:48;;;;;;;23.40;10.02;;;;;;;18.12;98.12;100381.19;5061284;28;20029;-42
2023/04/23 09:20:14;;;;;;;22.92;11.93;;;;;;;18.07;97.36;100375.66;5037675;28;20052;-42
2023/04/23 09:22:48;;;;;;;27.30;10.75;;;;;;;17.56;99.38;100371.84;5055776;28;20021;-41
2023/04/23 09:25:16;;;;;;;32.40;12.38;;;;;;;17.29;100.00;100377.78;5064546;28;20421;-40
2023/04/23 09:27:41;;;;;;;;;;;;;;;17.11;100.00;100369.75;5050747;28;20434;-42
2023/04/23 09:30:09;;;;;;;29.95;11.75;;;;;;;16.96;100.00;100370.25;5028611;28;19928;-44
2023/04/23 09:32:36;;;;;;;33.88;11.50;;;;;;;16.66;100.00;100370.28;5062531;28;20035;-43
2023/04/23 09:35:03;;;;;;;25.42;12.30;;;;;;;17.08;100.00;100368.34;5063656;28;20032;-41
2023/04/23 09:37:29;;;;;;;25.03;10.50;;;;;;;17.89;100.00;100363.03;5067322;28;20040;-42
2023/04/23 09:39:57;;;;;;;25.30;9.43;;;;;;;18.43;99.68;100363.53;5058298;28;20306;-44
2023/04/23 09:42:23;;;;;;;22.27;7.78;;;;;;;19.55;94.84;100362.78;5061243;28;20178;-44
2023/04/23 09:44:57;;;;;;;25.00;8.13;;;;;;;19.04;94.65;100368.34;5064239;28;20067;-43
2023/04/23 09:47:22;;;;;;;27.25;10.73;;;;;;;18.46;95.72;100358.63;5054254;28;20042;-45
2023/04/23 09:49:48;;;;;;;27.38;9.05;;;;;;;18.46;97.04;100370.38;5051628;28;20055;-40
2023/04/23 09:52:14;;;;;;;25.65;8.45;;;;;;;18.19;98.76;100359.25;5072044;28;20470;-41
2023/04/23 09:54:39;;;;;;;24.80;8.25;;;;;;;17.78;100.00;100359.25;5070933;28;20073;-44
2023/04/23 09:57:07;;;;;;;20.13;7.63;;;;;;;17.69;100.00;100352.56;5056676;28;20087;-42
2023/04/23 09:59:35;;;;;;;24.30;7.28;;;;;;;17.90;100.00;100355.69;5060004;28;20129;-41
2023/04/23 10:02:01;;;;;;;25.33;6.90;;;;;;;18.29;99.89;100350.44;5065379;28;20032;-44
2023/04/23 10:04:27;;;;;;;25.75;6.88;;;;;;;18.03;100.00;100354.59;5063963;28;20119;-43
2023/04/23 10:06:57;;;;;;;23.38;7.15;;;;;;;17.41;100.00;100341.63;5044481;28;20047;-41
2023/04/23 10:09:23;;;;;;;16.10;6.07;;;;;;;17.91;100.00;100343.75;5064914;28;20385;-44
2023/04/23 10:12:03;;;;;;;22.45;6.88;;;;;;;18.01;99.40;100343.94;5058170;28;20407;-45
2023/04/23 10:14:29;;;;;;;19.65;6.05;;;;;;;17.33;100.00;100343.63;5064110;28;20029;-41
2023/04/23 10:16:59;;;;;;;23.33;7.00;;;;;;;16.60;100.00;100347.59;5064374;28;20048;-43
2023/04/23 10:19:26;;;;;;;27.08;6.93;;;;;;;16.06;100.00;100344.03;5051567;28;20490;-40
2023/04/23 10:22:04;;;;;;;29.65;7.70;;;;;;;16.14;100.00;100334.72;5054507;28;20021;-43
2023/04/23 10:24:32;;;;;;;23.73;6.97;;;;;;;16.36;100.00;100335.03;5056977;28;20021;-43
2023/04/23 10:27:03;;;;;;;22.13;7.10;;;;;;;16.86;100.00;100342.81;5064796;28;20048;-41
2023/04/23 10:29:30;;;;;;;29.70;5.93;;;;;;;16.54;100.00;100331.44;5055303;28;20088;-45
2023/04/23 10:31:58;;;;;;;18.50;5.87;;;;;;;16.40;100.00;100333.50;5057289;28;20028;-44
2023/04/23 10:34:24;;;;;;;17.85;5.82;;;;;;;16.40;100.00;100319.91;5051778;28;20309;-42
2023/04/23 10:36:50;;;;;;;18.50;5.32;;;;;;;16.77;100.00;100326.06;5046171;28;20033;-42
2023/04/23 10:39:17;;;;;;;25.13;5.72;;;;;;;17.08;100.00;100324.03;5056781;28;20041;-41
2023/04/23 10:41:43;;;;;;;19.30;5.22;;;;;;;16.88;100.00;100321.69;5070785;28;20032;-43
2023/04/23 10:44:12;;;;;;;17.15;5.90;;;;;;;16.42;100.00;100321.34;5054993;28;20110;-43
2023/04/23 10:46:38;;;;;;;20.70;5.25;;;;;;;16.63;100.00;100316.41;5051953;28;20044;-42
2023/04/23 10:49:15;;;;;;;27.00;5.38;;;;;;;16.87;100.00;100300.97;5060444;28;20408;-42
2023/04/23 10:51:44;;;;;;;12.73;4.75;;;;;;;16.92;100.00;100303.00;5066920;28;20135;-41
2023/04/23 10:54:12;;;;;;;14.45;4.43;;;;;;;16.94;100.00;100300.88;5049785;28;20784;-43
2023/04/23 10:56:38;;;;;;;15.63;4.78;;;;;;;16.67;100.00;100290.44;5050738;28;20106;-44
2023/04/23 10:59:19;;;;;;;17.60;4.80;;;;;;;16.77;100.00;100289.84;5051979;28;20031;-44